Time;durP1;ratioP1;P1;durP2;ratioP2;P2;SDS_P1;SDS_P2;PMS_P1;PMS_P2;Temp;Humidity;BMP_temperature;BMP_pressure;BME280_temperature;BME280_humidity;BME280_pressure;Samples;Min_cycle;Max_cycle;Signal;HPM_P1;HPM_P2
2022/12/16 00:01:17;;;;;;;54.10;23.90;;;-0.70;99.90;;;;;;4976528;28;20189;-82
2022/12/16 00:03:48;;;;;;;45.17;22.63;;;-0.70;99.90;;;;;;4975686;28;20181;-80
2022/12/16 00:06:14;;;;;;;51.42;24.73;;;-0.80;99.90;;;;;;4993689;28;20213;-83
2022/12/16 00:08:40;;;;;;;52.50;23.75;;;-0.80;99.90;;;;;;4976737;28;20178;-82
2022/12/16 00:11:07;;;;;;;48.03;23.80;;;-0.70;99.90;;;;;;4976682;28;20185;-83
2022/12/16 00:13:34;;;;;;;49.78;23.15;;;-0.80;99.90;;;;;;4994111;28;20349;-83
2022/12/16 00:16:04;;;;;;;55.70;24.90;;;-0.80;99.90;;;;;;4960479;28;20198;-83
2022/12/16 00:18:30;;;;;;;51.42;24.50;;;-0.80;99.90;;;;;;4977014;28;20179;-85
2022/12/16 00:20:56;;;;;;;54.27;26.27;;;-0.80;99.90;;;;;;4960455;28;20684;-83
2022/12/16 00:23:22;;;;;;;61.80;27.07;;;-0.80;99.90;;;;;;4959582;28;20353;-83
2022/12/16 00:25:48;;;;;;;55.78;24.58;;;-0.70;99.90;;;;;;4959743;28;20217;-80
2022/12/16 00:28:15;;;;;;;51.50;25.98;;;-0.70;99.90;;;;;;4975811;28;20270;-83
2022/12/16 00:30:42;;;;;;;57.85;24.85;;;-0.70;99.90;;;;;;4993248;28;20216;-82
2022/12/16 00:33:08;;;;;;;50.85;23.50;;;-0.60;99.90;;;;;;4992891;28;20258;-83
2022/12/16 00:35:33;;;;;;;49.20;26.20;;;-0.70;99.90;;;;;;4992916;28;20213;-82
2022/12/16 00:37:59;;;;;;;53.77;25.70;;;-0.60;99.90;;;;;;4976490;28;20716;-82
2022/12/16 00:40:26;;;;;;;57.25;26.08;;;-0.70;99.90;;;;;;4978254;28;20216;-83
2022/12/16 00:42:52;;;;;;;57.95;25.95;;;-0.70;99.90;;;;;;4979130;28;20214;-83
2022/12/16 00:45:18;;;;;;;50.70;25.13;;;-0.70;99.90;;;;;;4962224;28;20316;-82
2022/12/16 00:47:43;;;;;;;54.10;24.87;;;-0.70;99.90;;;;;;4995589;28;20661;-83
2022/12/16 00:50:10;;;;;;;45.23;24.50;;;-0.60;99.90;;;;;;4961430;28;20418;-83
2022/12/16 00:52:35;;;;;;;54.67;25.60;;;-0.70;99.90;;;;;;4960343;28;20850;-82
2022/12/16 00:55:01;;;;;;;55.10;26.47;;;-0.80;99.90;;;;;;4980671;28;20209;-82
2022/12/16 00:57:27;;;;;;;56.33;25.13;;;-0.80;99.90;;;;;;4962284;28;20205;-83
2022/12/16 00:59:52;;;;;;;53.50;27.70;;;-0.80;99.90;;;;;;4961348;28;20536;-83
2022/12/16 01:02:18;;;;;;;55.43;25.73;;;-0.90;99.90;;;;;;4958844;28;20233;-84
2022/12/16 01:04:43;;;;;;;57.17;28.10;;;-1.00;99.90;;;;;;4975099;28;20587;-83
2022/12/16 01:07:09;;;;;;;53.33;27.67;;;-0.90;99.90;;;;;;4958456;28;20190;-83
2022/12/16 01:09:35;;;;;;;66.77;28.27;;;-1.00;99.90;;;;;;4942506;28;20336;-84
2022/12/16 01:12:01;;;;;;;59.40;27.53;;;-0.90;99.90;;;;;;4942809;28;20210;-83
2022/12/16 01:14:26;;;;;;;57.83;28.00;;;-1.00;99.90;;;;;;4974296;28;20457;-83
2022/12/16 01:16:52;;;;;;;56.73;28.70;;;-1.00;99.90;;;;;;4974805;28;20185;-83
2022/12/16 01:19:18;;;;;;;63.20;29.57;;;-1.00;99.90;;;;;;4958820;28;20194;-81
2022/12/16 01:21:43;;;;;;;58.40;28.23;;;-1.00;99.90;;;;;;4959687;28;20748;-81
2022/12/16 01:24:10;;;;;;;60.33;25.90;;;-0.90;99.90;;;;;;4959973;28;20183;-83
2022/12/16 01:26:36;;;;;;;72.95;29.30;;;-0.90;99.90;;;;;;4975635;28;20437;-83
2022/12/16 01:29:02;;;;;;;58.63;28.43;;;-1.00;99.90;;;;;;4975767;28;20284;-83
2022/12/16 01:31:27;;;;;;;50.25;26.08;;;-0.90;99.90;;;;;;4975233;28;20219;-83
2022/12/16 01:33:53;;;;;;;59.23;26.77;;;-1.00;99.90;;;;;;4960746;28;20712;-80
2022/12/16 01:36:19;;;;;;;50.30;25.20;;;-1.00;99.90;;;;;;4976816;28;20197;-80
2022/12/16 01:38:45;;;;;;;53.23;26.60;;;-1.00;99.90;;;;;;4944011;28;20246;-83
2022/12/16 01:41:13;;;;;;;52.93;26.40;;;-1.00;99.90;;;;;;4974403;28;20760;-84
2022/12/16 01:43:42;;;;;;;51.13;25.20;;;-1.00;99.90;;;;;;4973764;28;20515;-83
2022/12/16 01:46:14;;;;;;;54.80;27.88;;;-1.20;99.90;;;;;;4991398;28;20241;-82
2022/12/16 01:48:52;;;;;;;55.47;26.40;;;-1.10;99.90;;;;;;4973464;28;20244;-81
2022/12/16 01:51:33;;;;;;;54.80;27.77;;;-1.20;99.90;;;;;;4990974;28;20174;-81
2022/12/16 01:54:11;;;;;;;47.88;25.58;;;-1.20;99.90;;;;;;4973108;28;20565;-82
2022/12/16 01:56:42;;;;;;;55.75;27.92;;;-1.10;99.90;;;;;;4974711;28;20174;-80
2022/12/16 01:59:09;;;;;;;53.75;26.27;;;-1.10;99.90;;;;;;4972898;28;20228;-79
2022/12/16 02:01:35;;;;;;;52.40;25.65;;;-1.20;99.90;;;;;;4956972;28;20348;-79
2022/12/16 02:04:02;;;;;;;48.03;26.03;;;-1.20;99.90;;;;;;4957533;28;20264;-79
2022/12/16 02:06:30;;;;;;;55.85;28.33;;;-1.20;99.90;;;;;;4973321;28;20430;-80
2022/12/16 02:08:59;;;;;;;55.42;27.23;;;-1.20;99.90;;;;;;4957403;28;20176;-81
2022/12/16 02:11:51;;;;;;;58.88;26.50;;;-1.20;99.90;;;;;;4956706;28;20189;-81
2022/12/16 02:14:52;;;;;;;56.72;28.42;;;-1.20;99.90;;;;;;4972997;28;20280;-82
2022/12/16 02:17:38;;;;;;;59.95;27.70;;;-1.30;99.90;;;;;;4973290;28;20285;-81
2022/12/16 02:20:40;;;;;;;58.22;25.70;;;-1.20;99.90;;;;;;4972661;28;20196;-81
2022/12/16 02:23:34;;;;;;;58.00;27.25;;;-1.30;99.90;;;;;;4973363;28;20625;-79
2022/12/16 02:26:21;;;;;;;61.53;28.13;;;-1.30;99.90;;;;;;4990866;28;20195;-79
2022/12/16 02:29:11;;;;;;;57.47;27.55;;;-1.20;99.90;;;;;;4990169;28;20163;-80
2022/12/16 02:31:57;;;;;;;55.13;28.08;;;-1.30;99.90;;;;;;4973481;28;20997;-81
2022/12/16 02:34:53;;;;;;;58.10;27.30;;;-1.30;99.90;;;;;;4992174;28;20213;-81
2022/12/16 02:37:33;;;;;;;52.40;26.17;;;-1.30;99.90;;;;;;4973079;28;20202;-81
2022/12/16 02:40:03;;;;;;;58.47;27.98;;;-1.40;99.90;;;;;;4991822;28;20659;-83
2022/12/16 02:42:46;;;;;;;68.13;30.88;;;-1.40;99.90;;;;;;4973151;28;20205;-82
2022/12/16 02:45:18;;;;;;;62.15;28.05;;;-1.40;99.90;;;;;;4973045;28;20209;-82
2022/12/16 02:47:45;;;;;;;56.05;28.45;;;-1.40;99.90;;;;;;4973794;28;20309;-83
2022/12/16 02:50:45;;;;;;;60.85;28.70;;;-1.40;99.90;;;;;;4956915;28;20200;-85
2022/12/16 02:53:11;;;;;;;54.08;25.92;;;-1.40;99.90;;;;;;4970477;28;20210;-82
2022/12/16 02:56:07;;;;;;;58.25;27.38;;;-1.40;99.90;;;;;;4991216;28;20852;-83
2022/12/16 02:58:52;;;;;;;55.60;28.38;;;-1.40;99.90;;;;;;4990605;28;20211;-82
2022/12/16 03:01:33;;;;;;;57.65;27.60;;;-1.40;99.90;;;;;;4972911;28;20174;-81
2022/12/16 03:04:35;;;;;;;59.83;28.13;;;-1.50;99.90;;;;;;4972007;28;20208;-81
2022/12/16 03:07:03;;;;;;;62.00;27.50;;;-1.50;99.90;;;;;;4962692;28;20248;-82
2022/12/16 03:09:33;;;;;;;61.58;27.00;;;-1.50;99.90;;;;;;4940689;28;20267;-82
2022/12/16 03:12:02;;;;;;;63.28;28.05;;;-1.40;99.90;;;;;;4956304;28;20256;-85
2022/12/16 03:14:31;;;;;;;57.97;28.20;;;-1.40;99.90;;;;;;4955945;28;20189;-84
2022/12/16 03:16:58;;;;;;;59.28;29.20;;;-1.20;99.90;;;;;;4975348;28;20188;-80
2022/12/16 03:19:26;;;;;;;59.88;29.92;;;-1.50;99.90;;;;;;4944088;28;20638;-82
2022/12/16 03:21:59;;;;;;;55.88;28.13;;;-1.40;99.90;;;;;;4975946;28;20206;-82
2022/12/16 03:24:26;;;;;;;65.13;29.38;;;-1.30;99.90;;;;;;4976186;28;20221;-82
2022/12/16 03:27:06;;;;;;;62.45;27.85;;;-1.40;99.90;;;;;;4959903;28;20217;-82
2022/12/16 03:29:56;;;;;;;68.95;28.92;;;-1.30;99.90;;;;;;4993610;28;20236;-83
2022/12/16 03:32:38;;;;;;;51.20;27.08;;;-1.30;99.90;;;;;;4976460;28;20566;-83
2022/12/16 03:35:22;;;;;;;50.83;26.42;;;-1.40;99.90;;;;;;4993774;28;20523;-83
2022/12/16 03:37:51;;;;;;;51.25;25.48;;;-1.40;99.90;;;;;;4976375;28;20385;-83
2022/12/16 03:40:20;;;;;;;57.55;26.80;;;-1.40;99.90;;;;;;4976031;28;20178;-83
2022/12/16 03:42:47;;;;;;;54.28;26.98;;;-1.40;99.90;;;;;;4960582;28;20305;-84
2022/12/16 03:45:18;;;;;;;56.65;26.95;;;-1.30;99.90;;;;;;4976151;28;20688;-84
2022/12/16 03:47:52;;;;;;;47.58;25.55;;;-1.30;99.90;;;;;;4960565;28;20586;-84
2022/12/16 03:50:26;;;;;;;51.22;27.10;;;-1.30;99.90;;;;;;4976214;28;20243;-80
2022/12/16 03:52:52;;;;;;;59.55;26.85;;;-1.20;99.90;;;;;;4993312;28;20215;-78
2022/12/16 03:55:18;;;;;;;51.37;27.27;;;-1.30;99.90;;;;;;4959698;28;20193;-77
2022/12/16 03:57:43;;;;;;;60.73;29.17;;;-1.20;99.90;;;;;;4993364;28;20193;-75
2022/12/16 04:00:10;;;;;;;64.43;26.87;;;-1.30;99.90;;;;;;4975380;28;20236;-75
2022/12/16 04:02:35;;;;;;;47.60;26.27;;;-1.30;99.90;;;;;;4975428;28;20232;-74
2022/12/16 04:05:01;;;;;;;47.60;25.23;;;-1.20;99.90;;;;;;4975410;28;20268;-75
2022/12/16 04:07:27;;;;;;;45.40;23.83;;;-1.30;99.90;;;;;;4959156;28;20183;-75
2022/12/16 04:09:52;;;;;;;57.70;26.03;;;-1.30;99.90;;;;;;4958907;28;20264;-75
2022/12/16 04:26:12;;;;;;;47.22;25.58;;;-1.40;99.90;;;;;;4992614;28;20702;-76
2022/12/16 04:28:37;;;;;;;52.77;25.17;;;-1.40;99.90;;;;;;4991368;28;20174;-74
2022/12/16 04:31:03;;;;;;;51.30;24.77;;;-1.50;99.90;;;;;;4992419;28;20260;-74
